Time;durP1;ratioP1;P1;durP2;ratioP2;P2;SDS_P1;SDS_P2;PMS_P1;PMS_P2;Temp;Humidity;BMP_temperature;BMP_pressure;BME280_temperature;BME280_humidity;BME280_pressure;Samples;Min_cycle;Max_cycle;Signal;HPM_P1;HPM_P2
2021/11/15 00:00:45;;;;;;;2.60;2.40;;;;;;;;;;4996909;28;20077;-76
2021/11/15 00:03:13;;;;;;;2.65;2.40;;;;;;;;;;4995656;28;20037;-74
2021/11/15 00:05:40;;;;;;;2.40;2.30;;;;;;;;;;4995410;28;20027;-75
2021/11/15 00:08:07;;;;;;;2.42;2.22;;;;;;;;;;4995707;28;20041;-76
2021/11/15 00:10:35;;;;;;;2.97;2.10;;;;;;;;;;4996500;28;20022;-75
2021/11/15 00:13:02;;;;;;;2.83;2.00;;;;;;;;;;4996959;28;20030;-75
2021/11/15 00:15:29;;;;;;;2.20;2.00;;;;;;;;;;4996718;28;20395;-73
2021/11/15 00:17:57;;;;;;;2.53;2.33;;;;;;;;;;4996500;28;20133;-73
2021/11/15 00:20:25;;;;;;;2.30;2.17;;;;;;;;;;4995375;28;20556;-74
2021/11/15 00:22:52;;;;;;;2.30;2.20;;;;;;;;;;4995943;28;20022;-75
2021/11/15 00:25:19;;;;;;;4.72;2.80;;;;;;;;;;4979260;28;20423;-75
2021/11/15 00:27:47;;;;;;;2.50;2.30;;;20.80;95.30;;;;;;4995090;28;20030;-76
2021/11/15 00:30:16;;;;;;;2.63;2.20;;;21.00;83.00;;;;;;4996423;28;20021;-74
2021/11/15 00:32:44;;;;;;;2.38;2.17;;;21.40;82.20;;;;;;4995258;28;20030;-75
2021/11/15 00:35:15;;;;;;;2.55;2.33;;;21.80;81.30;;;;;;4995201;28;20505;-75
2021/11/15 00:37:43;;;;;;;2.28;2.17;;;21.50;79.80;;;;;;4996227;28;20044;-76
2021/11/15 00:40:14;;;;;;;4.53;2.85;;;21.60;81.20;;;;;;4995124;28;20038;-76
2021/11/15 00:42:43;;;;;;;3.25;2.60;;;21.90;81.00;;;;;;4996058;28;20084;-76
2021/11/15 00:45:13;;;;;;;4.07;2.50;;;21.60;80.30;;;;;;4994902;28;20106;-75
2021/11/15 00:47:41;;;;;;;3.17;2.70;;;21.80;79.80;;;;;;4994846;28;20483;-74
2021/11/15 00:50:11;;;;;;;2.38;2.17;;;21.70;79.40;;;;;;4994624;28;20027;-72
2021/11/15 00:52:38;;;;;;;;;;;21.50;80.10;;;;;;4996573;28;20045;-73
2021/11/15 00:55:07;;;;;;;2.25;2.15;;;21.80;80.20;;;;;;4978810;28;19917;-76
2021/11/15 00:57:34;;;;;;;2.72;2.28;;;22.20;79.30;;;;;;4995973;28;20073;-72
2021/11/15 01:00:01;;;;;;;3.60;2.53;;;22.60;79.60;;;;;;4996308;28;20088;-75
2021/11/15 01:02:29;;;;;;;2.60;2.40;;;23.10;79.60;;;;;;4994687;28;20483;-74
2021/11/15 01:04:56;;;;;;;2.63;2.33;;;22.70;78.30;;;;;;4994887;28;20026;-76
2021/11/15 01:07:23;;;;;;;2.88;2.53;;;22.90;78.10;;;;;;4995255;28;20047;-74
2021/11/15 01:09:51;;;;;;;2.53;2.33;;;22.70;77.10;;;;;;4994824;28;20284;-74
2021/11/15 01:12:18;;;;;;;3.05;2.85;;;22.90;77.40;;;;;;4995945;28;20049;-75
2021/11/15 01:14:46;;;;;;;3.50;2.60;;;22.50;77.40;;;;;;4995410;28;20026;-73
2021/11/15 01:17:13;;;;;;;5.78;2.40;;;22.30;78.50;;;;;;4993827;28;20113;-73
2021/11/15 01:19:41;;;;;;;3.83;2.45;;;22.00;77.80;;;;;;4995437;28;20141;-74
2021/11/15 01:22:08;;;;;;;2.15;1.95;;;22.50;78.30;;;;;;4994764;28;20030;-73
2021/11/15 01:24:35;;;;;;;2.33;2.10;;;22.50;77.70;;;;;;4995570;28;20101;-73
2021/11/15 01:27:03;;;;;;;3.03;2.30;;;22.80;76.80;;;;;;4993989;28;20064;-74
2021/11/15 01:29:31;;;;;;;5.60;3.35;;;23.10;76.40;;;;;;4993749;28;20023;-72
2021/11/15 01:32:00;;;;;;;3.08;2.65;;;23.10;77.20;;;;;;4993859;28;20033;-73
2021/11/15 01:34:31;;;;;;;2.50;2.30;;;22.90;77.00;;;;;;4994879;28;20018;-73
2021/11/15 01:36:58;;;;;;;2.88;2.30;;;23.20;76.00;;;;;;4995025;28;20022;-72
2021/11/15 01:39:26;;;;;;;2.65;2.42;;;23.20;75.40;;;;;;4994669;28;20589;-73
2021/11/15 01:41:54;;;;;;;3.65;2.40;;;23.00;76.30;;;;;;4993743;28;20022;-73
2021/11/15 01:44:21;;;;;;;2.70;2.40;;;23.20;77.80;;;;;;4994942;28;20037;-72
2021/11/15 01:46:49;;;;;;;3.15;2.53;;;23.70;77.50;;;;;;4994900;28;20021;-74
2021/11/15 01:49:17;;;;;;;3.30;2.50;;;23.60;76.90;;;;;;4993783;28;20028;-74
2021/11/15 01:51:44;;;;;;;2.47;2.28;;;24.20;75.80;;;;;;4994793;28;20030;-73
2021/11/15 01:54:12;;;;;;;4.10;2.17;;;23.10;75.70;;;;;;4993695;28;20034;-73
2021/11/15 01:56:39;;;;;;;3.05;2.40;;;23.20;77.20;;;;;;4993384;28;20037;-74
2021/11/15 01:59:07;;;;;;;3.58;2.20;;;23.30;76.30;;;;;;4993716;28;20081;-74
2021/11/15 02:01:35;;;;;;;1.88;1.77;;;23.00;75.90;;;;;;4993446;28;20113;-74
2021/11/15 02:04:03;;;;;;;2.05;1.80;;;23.50;76.80;;;;;;4994831;28;20026;-74
2021/11/15 02:06:30;;;;;;;2.92;2.10;;;23.60;75.70;;;;;;4993316;28;20048;-73
2021/11/15 02:08:58;;;;;;;3.15;2.17;;;23.70;75.40;;;;;;4994510;28;20073;-72
2021/11/15 02:11:25;;;;;;;3.00;2.35;;;24.10;75.50;;;;;;4994685;28;20077;-73
2021/11/15 02:13:53;;;;;;;2.90;2.70;;;24.00;75.40;;;;;;4994638;28;20026;-72
2021/11/15 02:16:20;;;;;;;3.97;2.50;;;24.30;78.30;;;;;;4994732;28;20031;-73
2021/11/15 02:18:47;;;;;;;3.50;2.47;;;24.30;73.50;;;;;;4994571;28;20474;-75
2021/11/15 02:21:16;;;;;;;3.97;2.40;;;24.00;73.90;;;;;;4994372;28;20073;-74
2021/11/15 02:23:44;;;;;;;2.63;2.30;;;23.90;74.20;;;;;;4992437;28;20034;-72
2021/11/15 02:26:15;;;;;;;2.53;2.20;;;23.70;72.90;;;;;;4994471;28;20488;-72
2021/11/15 02:28:45;;;;;;;3.28;2.45;;;23.20;73.10;;;;;;4993109;28;20562;-72
2021/11/15 02:31:13;;;;;;;4.00;2.60;;;;;;;;;;4994508;28;20038;-72
2021/11/15 02:33:41;;;;;;;3.65;2.40;;;;;;;;;;4995228;28;20109;-72
2021/11/15 02:36:08;;;;;;;3.70;3.05;;;;;;;;;;4998435;28;20026;-73
2021/11/15 02:38:36;;;;;;;3.47;2.85;;;;;;;;;;4997155;28;20038;-72
2021/11/15 02:41:04;;;;;;;3.65;3.22;;;;;;;;;;4998457;28;20022;-74
2021/11/15 02:43:32;;;;;;;3.00;2.78;;;;;;;;;;4998442;28;20030;-72
2021/11/15 02:45:59;;;;;;;2.97;2.75;;;;;;;;;;4997009;28;20113;-73
2021/11/15 02:48:28;;;;;;;4.47;3.45;;;;;;;;;;4996736;28;20022;-74
2021/11/15 02:50:56;;;;;;;3.88;2.58;;;;;;;;;;4997713;28;20014;-74
2021/11/15 02:53:23;;;;;;;3.60;2.50;;;;;;;;;;4998174;28;20105;-74
2021/11/15 02:55:50;;;;;;;2.85;2.65;;;;;;;;;;4998200;28;20037;-75
2021/11/15 02:58:18;;;;;;;2.47;2.30;;;;;;;;;;4998128;28;20430;-74
2021/11/15 03:00:52;;;;;;;3.97;2.30;;;;;;;;;;4996693;28;20106;-76
2021/11/15 03:03:20;;;;;;;2.60;2.40;;;;;;;;;;4996661;28;20077;-74
2021/11/15 03:05:49;;;;;;;3.85;2.75;;;;;;;;;;4996339;28;20110;-74
2021/11/15 03:08:17;;;;;;;3.25;2.35;;;;;;;;;;4996643;28;20030;-74
2021/11/15 03:10:45;;;;;;;2.40;2.20;;;;;;;;;;4997870;28;20051;-74
2021/11/15 03:13:13;;;;;;;3.15;2.50;;;;;;;;;;4997942;28;20475;-74
2021/11/15 03:15:42;;;;;;;3.50;2.72;;;;;;;;;;4996482;28;20439;-75
2021/11/15 03:18:11;;;;;;;4.88;2.95;;;;;;;;;;4996365;28;20026;-73
2021/11/15 03:20:39;;;;;;;3.25;2.78;;;;;;;;;;4997761;28;20030;-73
2021/11/15 03:23:07;;;;;;;4.28;2.47;;;;;;;;;;4996008;28;20038;-74
2021/11/15 03:25:35;;;;;;;3.38;2.50;;;;;;;;;;4996220;28;20023;-74
2021/11/15 03:28:02;;;;;;;3.10;2.60;;;;;;;;;;4996298;28;20046;-73
2021/11/15 03:30:29;;;;;;;3.58;2.35;;;;;;;;;;4996142;28;20030;-73
2021/11/15 03:32:57;;;;;;;3.63;2.50;;;;;;;;;;4996118;28;20387;-73
2021/11/15 03:35:24;;;;;;;4.93;2.80;;;;;;;;;;4996171;28;20367;-73
2021/11/15 03:37:53;;;;;;;2.47;2.20;;;;;;;;;;4997387;28;20391;-74
2021/11/15 03:40:24;;;;;;;2.75;2.30;;;;;;;;;;4997193;28;20148;-73
2021/11/15 03:42:53;;;;;;;3.35;2.70;;;;;;;;;;4997132;28;20050;-73
2021/11/15 03:45:21;;;;;;;2.95;2.40;;;;;;;;;;4995418;28;20442;-73
2021/11/15 03:47:48;;;;;;;5.15;2.97;;;;;;;;;;4979524;28;20022;-74
2021/11/15 03:50:15;;;;;;;2.72;2.42;;;;;;;;;;4995992;28;20029;-74
2021/11/15 03:52:44;;;;;;;3.25;2.40;;;;;;;;;;4996098;28;20454;-74
2021/11/15 03:55:12;;;;;;;2.97;2.38;;;;;;;;;;4995855;28;20030;-75
2021/11/15 03:57:39;;;;;;;2.30;2.10;;;;;;;;;;4997052;28;20053;-73
2021/11/15 04:00:08;;;;;;;2.90;2.70;;;;;;;;;;4997056;28;20026;-74
2021/11/15 04:02:35;;;;;;;3.10;2.80;;;;;;;;;;4996818;28;20390;-74
2021/11/15 04:05:04;;;;;;;5.18;2.60;;;;;;;;;;4995249;28;20446;-72
2021/11/15 04:07:49;;;;;;;3.50;2.92;;;;;;;;;;4996103;28;20045;-74
2021/11/15 04:10:20;;;;;;;4.22;2.70;;;;;;;;;;4995673;28;20045;-74
2021/11/15 04:12:48;;;;;;;2.60;2.40;;;;;;;;;;4995467;28;20034;-73
2021/11/15 04:15:15;;;;;;;3.45;2.95;;;;;;;;;;4995314;28;20026;-73
2021/11/15 04:17:44;;;;;;;3.00;2.80;;;;;;;;;;4995862;28;20026;-73
2021/11/15 04:20:13;;;;;;;3.33;2.75;;;;;;;;;;4994788;28;20034;-73
2021/11/15 04:22:40;;;;;;;4.00;2.90;;;;;;;;;;4995240;28;20054;-73
2021/11/15 04:25:08;;;;;;;3.38;3.15;;;;;;;;;;4996247;28;20040;-73
2021/11/15 04:27:35;;;;;;;3.20;2.90;;;;;;;;;;4996697;28;20015;-73
2021/11/15 04:30:04;;;;;;;3.00;2.63;;;;;;;;;;4996438;28;20371;-74
2021/11/15 04:32:31;;;;;;;3.53;2.45;;;;;;;;;;4995226;28;20038;-73
2021/11/15 04:34:58;;;;;;;5.38;3.17;;;;;;;;;;4996303;28;20058;-73
2021/11/15 04:37:25;;;;;;;4.45;3.55;;;;;;;;;;4996083;28;20364;-73
2021/11/15 04:39:53;;;;;;;5.05;3.10;;;;;;;;;;4996249;28;20032;-73
2021/11/15 04:42:20;;;;;;;2.70;2.42;;;;;;;;;;4996191;28;20428;-73
2021/11/15 04:44:48;;;;;;;2.67;2.47;;;;;;;;;;4994396;28;20022;-73
2021/11/15 04:47:15;;;;;;;3.45;2.92;;;;;;;;;;4994673;28;20030;-73
2021/11/15 04:49:42;;;;;;;2.85;2.60;;;;;;;;;;4994556;28;20029;-74
2021/11/15 04:52:09;;;;;;;3.17;2.90;;;23.70;86.00;;;;;;4995974;28;20030;-74
2021/11/15 04:54:37;;;;;;;2.90;2.70;;;23.70;84.10;;;;;;4994527;28;20030;-73
2021/11/15 04:57:05;;;;;;;3.40;2.92;;;23.40;84.90;;;;;;4993717;28;20029;-73
2021/11/15 04:59:34;;;;;;;3.53;2.60;;;23.10;80.80;;;;;;4994313;28;20023;-73
2021/11/15 05:02:09;;;;;;;3.15;2.67;;;23.50;81.00;;;;;;4995486;28;20034;-74
2021/11/15 05:04:37;;;;;;;2.80;2.60;;;23.00;80.80;;;;;;4995722;28;20022;-74
2021/11/15 05:07:04;;;;;;;2.88;2.60;;;22.30;80.90;;;;;;4994302;28;20515;-74
2021/11/15 05:09:32;;;;;;;5.07;2.60;;;22.20;80.60;;;;;;4995609;28;20054;-73
2021/11/15 05:11:59;;;;;;;2.38;2.28;;;23.10;80.20;;;;;;4995573;28;20101;-73
2021/11/15 05:14:27;;;;;;;3.50;2.80;;;22.50;80.40;;;;;;4994304;28;20164;-75
2021/11/15 05:16:55;;;;;;;2.60;2.40;;;22.10;81.20;;;;;;4994023;28;20108;-74
2021/11/15 05:19:32;;;;;;;3.35;2.45;;;21.90;82.00;;;;;;5091682;27;20379;-73
2021/11/15 05:22:01;;;;;;;3.67;2.50;;;22.40;82.00;;;;;;5090160;28;20029;-73
2021/11/15 05:24:28;;;;;;;2.88;2.65;;;22.50;82.10;;;;;;5091302;28;20012;-73
2021/11/15 05:26:55;;;;;;;3.47;2.70;;;22.00;81.60;;;;;;5090011;28;20016;-73
2021/11/15 05:29:23;;;;;;;3.13;2.47;;;21.70;82.40;;;;;;5091287;28;20447;-73
2021/11/15 05:31:50;;;;;;;3.28;2.33;;;21.50;82.30;;;;;;5089898;28;20024;-73
2021/11/15 05:34:17;;;;;;;4.03;2.72;;;21.40;82.40;;;;;;5090920;28;20489;-74
2021/11/15 05:36:44;;;;;;;3.13;2.80;;;21.60;82.80;;;;;;5090690;28;20032;-75
2021/11/15 05:39:12;;;;;;;3.60;3.15;;;22.30;83.70;;;;;;5089511;28;20123;-75
2021/11/15 05:41:39;;;;;;;2.75;2.53;;;22.70;81.10;;;;;;5089568;28;20020;-74
2021/11/15 05:44:06;;;;;;;2.85;2.65;;;22.40;81.70;;;;;;5090892;28;20021;-73
2021/11/15 05:46:34;;;;;;;3.83;3.00;;;21.80;82.00;;;;;;5089502;28;20511;-74
2021/11/15 05:49:01;;;;;;;3.50;2.65;;;22.20;83.50;;;;;;5090011;28;20024;-77
2021/11/15 05:51:29;;;;;;;3.42;2.75;;;22.10;81.80;;;;;;5089199;28;20119;-74
2021/11/15 05:53:57;;;;;;;2.75;2.60;;;21.60;82.60;;;;;;5090716;28;20503;-74
2021/11/15 05:56:25;;;;;;;3.38;2.67;;;22.20;82.60;;;;;;5090932;28;20108;-74
2021/11/15 05:58:53;;;;;;;3.20;2.90;;;23.00;82.20;;;;;;5089323;28;20046;-73
2021/11/15 06:01:20;;;;;;;3.60;2.65;;;23.20;82.40;;;;;;5089297;28;20024;-72
2021/11/15 06:03:47;;;;;;;2.97;2.70;;;22.70;81.60;;;;;;5089452;28;20027;-73
2021/11/15 06:06:15;;;;;;;5.25;3.13;;;22.10;83.00;;;;;;5090428;28;20017;-75
2021/11/15 06:08:43;;;;;;;3.60;2.70;;;21.70;83.10;;;;;;5090689;28;20058;-74
2021/11/15 06:11:10;;;;;;;2.95;2.30;;;21.70;85.10;;;;;;5089721;28;20477;-75
2021/11/15 06:13:38;;;;;;;4.90;2.70;;;21.50;85.50;;;;;;5088854;28;20027;-74
2021/11/15 06:16:05;;;;;;;3.10;2.70;;;;;;;;;;5090077;28;20020;-74
2021/11/15 06:18:32;;;;;;;3.03;2.42;;;;;;;;;;5088681;28;20115;-74
2021/11/15 06:20:59;;;;;;;3.03;2.83;;;;;;;;;;5089118;28;20031;-76
2021/11/15 06:23:27;;;;;;;3.03;2.60;;;;;;;;;;5090638;28;20099;-75
2021/11/15 06:25:54;;;;;;;2.78;2.58;;;;;;;;;;5088829;28;20396;-75
2021/11/15 06:28:21;;;;;;;3.35;2.30;;;;;;;;;;5088618;28;20032;-74
2021/11/15 06:30:48;;;;;;;3.33;2.80;;;;;;;;;;5075292;28;20028;-76
2021/11/15 06:33:15;;;;;;;2.95;2.72;;;;;;;;;;5074997;28;20029;-75
2021/11/15 06:35:43;;;;;;;3.17;2.97;;;;;;;;;;5075252;28;20477;-75
2021/11/15 06:38:10;;;;;;;3.30;3.00;;;;;;;;;;5074956;28;20067;-74
2021/11/15 06:40:37;;;;;;;2.55;2.30;;;;;;;;;;5075812;28;20021;-75
2021/11/15 06:43:04;;;;;;;4.10;2.90;;;;;;;;;;5074489;28;20024;-76
2021/11/15 06:45:33;;;;;;;6.75;2.85;;;;;;;;;;5074839;28;20476;-75
2021/11/15 06:48:00;;;;;;;2.70;2.42;;;;;;;;;;5075031;28;20086;-74
2021/11/15 06:50:28;;;;;;;2.60;2.40;;;;;;;;;;5076127;28;20435;-74
2021/11/15 06:52:55;;;;;;;2.97;2.60;;;;;;;;;;5074978;28;20025;-75
2021/11/15 06:55:25;;;;;;;3.45;2.55;;;;;;;;;;5074790;28;20029;-77
2021/11/15 06:58:00;;;;;;;3.70;2.70;;;;;;;;;;5075319;28;20485;-75
2021/11/15 07:00:28;;;;;;;3.40;2.65;;;;;;;;;;5076134;28;20361;-75
2021/11/15 07:02:57;;;;;;;4.15;2.85;;;;;;;;;;5058216;28;20078;-76
2021/11/15 07:05:28;;;;;;;2.90;2.60;;;;;;;;;;5074730;28;20029;-74
2021/11/15 07:07:55;;;;;;;3.55;2.50;;;;;;;;;;5074888;28;20111;-74
2021/11/15 07:10:23;;;;;;;3.78;2.60;;;;;;;;;;5074688;28;20029;-74
2021/11/15 07:12:51;;;;;;;2.75;2.50;;;;;;;;;;5076128;28;20076;-74
2021/11/15 07:15:19;;;;;;;3.45;2.70;;;;;;;;;;5074736;28;20037;-74
2021/11/15 07:17:46;;;;;;;3.42;2.40;;;19.80;95.60;;;;;;5074385;28;20055;-74
2021/11/15 07:20:15;;;;;;;2.78;2.58;;;19.90;83.80;;;;;;5074876;28;20020;-71
2021/11/15 07:22:44;;;;;;;3.10;2.80;;;20.00;83.10;;;;;;5074609;28;20034;-77
2021/11/15 07:25:11;;;;;;;2.53;2.33;;;19.90;83.10;;;;;;5074460;28;20515;-76
2021/11/15 07:27:39;;;;;;;3.05;2.70;;;19.70;83.50;;;;;;5074343;28;20024;-74
2021/11/15 07:30:09;;;;;;;4.00;2.60;;;19.60;84.00;;;;;;5074398;28;20056;-76
2021/11/15 07:32:37;;;;;;;3.47;1.90;;;19.40;84.20;;;;;;5075584;28;20024;-75
2021/11/15 07:35:05;;;;;;;2.75;2.55;;;19.50;83.90;;;;;;5075456;28;20044;-75
2021/11/15 07:37:32;;;;;;;3.00;2.72;;;19.40;83.90;;;;;;5075211;28;20016;-76
2021/11/15 07:40:00;;;;;;;3.90;2.60;;;19.30;84.00;;;;;;5075340;28;20031;-76
2021/11/15 07:42:27;;;;;;;2.97;2.70;;;19.20;84.70;;;;;;5074021;28;20055;-76
2021/11/15 07:44:54;;;;;;;4.20;2.50;;;19.10;84.80;;;;;;5073637;28;20453;-75
2021/11/15 07:47:22;;;;;;;2.60;2.40;;;19.10;84.60;;;;;;5073895;28;20123;-76
2021/11/15 07:49:50;;;;;;;2.83;2.60;;;19.10;85.60;;;;;;5073780;28;20074;-76
2021/11/15 07:52:17;;;;;;;2.90;2.60;;;19.20;85.10;;;;;;5073510;28;20020;-75
2021/11/15 07:54:46;;;;;;;5.68;2.88;;;19.20;85.80;;;;;;5073826;28;20024;-78
2021/11/15 07:57:14;;;;;;;3.45;2.83;;;19.40;85.50;;;;;;5057418;28;20028;-77
2021/11/15 07:59:41;;;;;;;3.65;2.47;;;19.30;85.80;;;;;;5073098;28;20039;-76
2021/11/15 08:02:11;;;;;;;3.90;2.40;;;19.10;85.80;;;;;;5075079;28;20036;-77
2021/11/15 08:04:39;;;;;;;3.63;2.80;;;19.00;86.60;;;;;;5073640;28;20031;-79
2021/11/15 08:07:07;;;;;;;3.05;2.58;;;18.80;87.50;;;;;;5074839;28;20023;-76
2021/11/15 08:09:34;;;;;;;3.10;2.70;;;18.80;87.90;;;;;;5073891;28;20021;-78
2021/11/15 08:12:06;;;;;;;4.18;2.70;;;18.70;88.70;;;;;;5073652;28;20472;-76
2021/11/15 08:14:41;;;;;;;3.55;2.75;;;18.60;88.80;;;;;;5074826;28;20021;-76
2021/11/15 08:17:13;;;;;;;3.58;2.72;;;18.50;89.50;;;;;;5074474;28;20481;-77
2021/11/15 08:19:41;;;;;;;2.67;2.40;;;;;;;;;;5073481;28;20056;-77
2021/11/15 08:22:08;;;;;;;3.67;2.63;;;;;;;;;;5073029;28;20382;-77
2021/11/15 08:24:44;;;;;;;3.10;2.58;;;;;;;;;;5073095;28;20020;-72
2021/11/15 08:27:12;;;;;;;3.08;2.78;;;;;;;;;;5074349;28;20473;-72
2021/11/15 08:29:43;;;;;;;3.47;3.28;;;;;;;;;;5073329;28;20028;-73
2021/11/15 08:32:10;;;;;;;3.63;3.33;;;;;;;;;;5073058;28;20389;-72
2021/11/15 08:34:38;;;;;;;2.90;2.58;;;;;;;;;;5074349;28;20020;-72
2021/11/15 08:37:06;;;;;;;4.25;2.80;;;;;;;;;;5072882;28;20025;-71
2021/11/15 08:39:34;;;;;;;2.58;2.20;;;;;;;;;;5072662;28;20051;-70
2021/11/15 08:42:02;;;;;;;2.72;2.40;;;;;;;;;;5073877;28;20480;-72
2021/11/15 08:44:32;;;;;;;2.60;2.40;;;;;;;;;;5074326;28;20024;-72
2021/11/15 08:47:00;;;;;;;2.17;1.98;;;;;;;;;;5073865;28;20430;-72
2021/11/15 08:49:28;;;;;;;5.15;2.05;;;;;;;;;;5072438;28;20028;-71
2021/11/15 08:51:56;;;;;;;2.67;2.33;;;;;;;;;;5072282;28;20027;-73
2021/11/15 08:54:23;;;;;;;5.65;2.13;;;;;;;;;;5072819;28;20048;-75
2021/11/15 08:56:55;;;;;;;2.35;2.22;;;;;;;;;;5073991;28;20048;-73
2021/11/15 08:59:22;;;;;;;4.43;2.42;;;;;;;;;;5074070;28;20021;-73
2021/11/15 09:01:49;;;;;;;3.30;2.70;;;;;;;;;;5073873;28;20020;-71
2021/11/15 09:04:17;;;;;;;2.88;2.53;;;;;;;;;;5072681;28;20044;-71
2021/11/15 09:06:44;;;;;;;2.90;2.67;;;;;;;;;;5072515;28;20023;-72
2021/11/15 09:09:15;;;;;;;4.30;2.63;;;;;;;;;;5073822;28;20481;-72
2021/11/15 09:11:44;;;;;;;2.67;2.47;;;;;;;;;;5072409;28;20450;-71
2021/11/15 09:14:11;;;;;;;4.00;2.63;;;;;;;;;;5072444;28;20029;-73
2021/11/15 09:16:38;;;;;;;2.60;2.40;;;;;;;;;;5073921;28;20020;-74
2021/11/15 09:19:05;;;;;;;2.75;2.55;;;;;;;;;;5072302;28;20041;-74
2021/11/15 09:21:32;;;;;;;2.60;2.20;;;;;;;;;;5073844;28;20067;-74
2021/11/15 09:23:59;;;;;;;2.70;2.50;;;;;;;;;;5073597;28;20079;-72
2021/11/15 09:26:27;;;;;;;2.70;2.50;;;;;;;;;;5072942;28;20028;-73
2021/11/15 09:28:59;;;;;;;3.83;2.40;;;;;;;;;;5073547;28;20054;-73
2021/11/15 09:31:26;;;;;;;2.80;2.60;;;;;;;;;;5073554;28;20031;-73
2021/11/15 09:33:53;;;;;;;2.70;2.50;;;;;;;;;;5073662;28;20027;-73
2021/11/15 09:36:25;;;;;;;2.90;2.70;;;;;;;;;;5072190;28;20034;-73
2021/11/15 09:38:59;;;;;;;2.53;2.40;;;;;;;;;;5073558;28;20028;-71
2021/11/15 09:41:27;;;;;;;2.20;2.10;;;;;;;;;;5072257;28;20016;-73
2021/11/15 09:43:55;;;;;;;2.33;2.22;;;;;;;;;;5073639;28;20087;-73
2021/11/15 09:46:23;;;;;;;2.45;2.33;;;;;;;;;;5071858;28;20069;-73
2021/11/15 09:48:53;;;;;;;4.00;2.72;;;;;;;;;;5072126;28;20524;-73
2021/11/15 09:51:20;;;;;;;3.42;2.60;;;;;;;;;;5072048;28;20511;-73
2021/11/15 09:53:47;;;;;;;2.67;2.47;;;;;;;;;;5071896;28;20131;-73
2021/11/15 09:56:15;;;;;;;2.97;2.65;;;;;;;;;;5071986;28;20032;-71
2021/11/15 09:58:43;;;;;;;2.88;2.67;;;;;;;;;;5071830;28;20028;-73
2021/11/15 10:01:10;;;;;;;3.20;2.90;;;;;;;;;;5071766;28;20017;-74
2021/11/15 10:03:38;;;;;;;3.20;3.00;;;;;;;;;;5073353;28;20013;-72
2021/11/15 10:06:06;;;;;;;4.35;3.03;;;;;;;;;;5076623;28;20473;-72
2021/11/15 10:09:05;;;;;;;3.28;3.05;;;;;;;;;;5075573;28;20500;-72
2021/11/15 10:11:40;;;;;;;3.50;3.20;;;;;;;;;;5043506;28;20033;-72
2021/11/15 10:14:08;;;;;;;3.35;3.15;;;;;;;;;;5075999;28;20024;-73
2021/11/15 10:16:35;;;;;;;3.38;3.05;;;;;;;;;;5075576;28;20020;-72
2021/11/15 10:19:09;;;;;;;3.33;2.72;;;;;;;;;;5075167;28;20072;-72
2021/11/15 10:21:47;;;;;;;3.50;3.20;;;;;;;;;;5076818;28;20025;-71
2021/11/15 10:24:30;;;;;;;2.97;2.83;;;;;;;;;;5075228;28;20024;-71
2021/11/15 10:27:00;;;;;;;3.00;2.90;;;;;;;;;;5076767;28;20484;-71
2021/11/15 10:29:35;;;;;;;3.35;3.10;;;;;;;;;;5076577;28;20024;-71
2021/11/15 10:32:03;;;;;;;3.13;2.83;;;;;;;;;;5076496;28;20100;-72
2021/11/15 10:34:32;;;;;;;3.47;3.17;;;;;;;;;;5076352;28;20020;-72
2021/11/15 10:37:10;;;;;;;2.70;2.60;;;;;;;;;;5076590;28;20358;-71
2021/11/15 10:39:42;;;;;;;3.13;2.90;;;;;;;;;;5076447;28;20028;-71
2021/11/15 10:42:13;;;;;;;2.92;2.70;;;;;;;;;;5075187;28;20393;-72
2021/11/15 10:44:45;;;;;;;2.90;2.70;;;;;;;;;;5076247;28;20024;-70
2021/11/15 10:47:12;;;;;;;3.50;3.20;;;;;;;;;;5076292;28;20017;-70
2021/11/15 10:49:39;;;;;;;3.90;2.97;;;;;;;;;;5074769;28;20131;-74
2021/11/15 10:52:11;;;;;;;3.50;3.03;;;;;;;;;;5076186;28;20048;-72
2021/11/15 10:57:21;;;;;;;2.95;2.65;;;;;;;;;;5075938;28;20033;-74
2021/11/15 11:00:12;;;;;;;3.20;3.00;;;;;;;;;;5074880;28;20016;-72
2021/11/15 11:02:44;;;;;;;4.93;3.10;;;;;;;;;;5064494;28;20024;-72
2021/11/15 11:05:21;;;;;;;3.15;2.95;;;;;;;;;;5075903;28;20024;-72
2021/11/15 11:08:12;;;;;;;3.38;3.08;;;;;;;;;;5074663;28;20115;-72
2021/11/15 11:10:50;;;;;;;3.67;3.03;;;;;;;;;;5074487;28;20101;-72
2021/11/15 11:13:18;;;;;;;3.28;3.00;;;;;;;;;;5074807;28;20033;-72
2021/11/15 11:15:52;;;;;;;4.07;3.13;;;;;;;;;;5075821;28;20066;-73
2021/11/15 11:18:39;;;;;;;3.35;3.15;;;;;;;;;;5075298;28;20123;-72
2021/11/15 11:26:29;;;;;;;2.95;2.65;;;;;;;;;;5075001;28;20024;-72
2021/11/15 11:28:58;;;;;;;4.35;2.90;;;;;;;;;;5075109;28;20025;-72
2021/11/15 11:31:34;;;;;;;2.83;2.67;;;;;;;;;;5075128;28;20570;-72
2021/11/15 11:34:01;;;;;;;2.70;2.50;;;;;;;;;;5073680;28;20081;-72
2021/11/15 11:36:28;;;;;;;4.07;2.80;;;;;;;;;;5075377;28;20020;-72
2021/11/15 11:38:56;;;;;;;3.08;2.85;;;;;;;;;;5073944;28;20024;-72
2021/11/15 11:41:23;;;;;;;3.47;2.80;;;;;;;;;;5074123;28;20016;-73
2021/11/15 11:43:53;;;;;;;2.85;2.65;;;;;;;;;;5074009;28;20031;-73
2021/11/15 11:46:23;;;;;;;3.83;2.90;;;;;;;;;;5073857;28;20025;-72
2021/11/15 11:48:54;;;;;;;2.95;2.75;;;;;;;;;;5073812;28;20024;-73
2021/11/15 11:51:24;;;;;;;6.38;3.13;;;;;;;;;;5073933;28;20404;-73
2021/11/15 11:54:12;;;;;;;3.30;3.13;;;;;;;;;;5073790;28;20525;-73
2021/11/15 11:56:39;;;;;;;4.05;2.83;;;;;;;;;;5073936;28;20032;-73
2021/11/15 11:59:11;;;;;;;3.97;2.97;;;;;;;;;;5074808;28;20029;-73
2021/11/15 12:01:39;;;;;;;3.10;2.90;;;;;;;;;;5074901;28;20020;-73
2021/11/15 12:04:15;;;;;;;3.60;3.30;;;;;;;;;;5073427;28;20020;-73
2021/11/15 12:06:43;;;;;;;3.00;2.70;;;;;;;;;;5074708;28;20032;-73
2021/11/15 12:09:10;;;;;;;4.65;2.85;;;;;;;;;;5073461;28;20116;-72
2021/11/15 12:11:39;;;;;;;2.88;2.67;;;;;;;;;;5074676;28;20030;-72
2021/11/15 12:14:09;;;;;;;2.97;2.70;;;;;;;;;;5074773;28;20478;-72
2021/11/15 12:16:54;;;;;;;3.63;2.65;;;;;;;;;;5074630;28;20029;-72
2021/11/15 12:19:26;;;;;;;2.97;2.78;;;;;;;;;;5072925;28;20052;-72
2021/11/15 12:22:15;;;;;;;4.40;3.15;;;;;;;;;;5073338;28;20126;-72
2021/11/15 12:25:00;;;;;;;2.80;2.60;;;;;;;;;;5073075;28;20137;-72
2021/11/15 12:27:37;;;;;;;2.72;2.63;;;;;;;;;;5072582;28;20031;-72
2021/11/15 12:30:18;;;;;;;2.60;2.40;;;;;;;;;;5074301;28;20035;-72
2021/11/15 12:32:48;;;;;;;4.18;3.20;;;;;;;;;;5072365;28;20024;-73
2021/11/15 12:35:15;;;;;;;3.07;2.67;;;;;;;;;;5072554;28;20116;-72
2021/11/15 12:37:45;;;;;;;4.60;2.90;;;;;;;;;;5073766;28;20393;-72
2021/11/15 12:40:32;;;;;;;3.30;3.10;;;;;;;;;;5073009;28;20013;-71
2021/11/15 12:43:20;;;;;;;5.15;2.90;;;;;;;;;;5073573;28;20021;-72
2021/11/15 12:46:08;;;;;;;3.08;2.90;;;;;;;;;;5074285;28;20029;-73
2021/11/15 12:48:38;;;;;;;3.05;2.75;;;;;;;;;;5074238;28;20474;-73
2021/11/15 12:51:31;;;;;;;3.40;3.13;;;;;;;;;;5073998;28;20027;-72
2021/11/15 12:53:58;;;;;;;3.95;3.28;;;;;;;;;;5072419;28;20063;-74
2021/11/15 12:56:26;;;;;;;3.33;2.72;;;;;;;;;;5072740;28;20096;-74
2021/11/15 12:58:54;;;;;;;3.17;2.88;;;;;;;;;;5073836;28;20024;-74
2021/11/15 13:01:22;;;;;;;4.25;2.90;;;;;;;;;;5072370;28;20029;-72
2021/11/15 13:03:51;;;;;;;3.10;2.90;;;;;;;;;;5072948;28;20365;-72
2021/11/15 13:06:19;;;;;;;2.90;2.70;;;;;;;;;;5073847;28;20003;-73
2021/11/15 13:08:46;;;;;;;3.38;3.17;;;;;;;;;;5072563;28;20566;-72
2021/11/15 13:11:15;;;;;;;3.53;3.10;;;;;;;;;;5073941;28;20449;-72
2021/11/15 13:13:42;;;;;;;2.78;2.60;;;;;;;;;;5072287;28;20485;-72
2021/11/15 13:16:10;;;;;;;4.15;2.88;;;;;;;;;;5073349;28;20021;-73
2021/11/15 13:18:39;;;;;;;3.00;2.80;;;;;;;;;;5073334;28;20083;-72
2021/11/15 13:21:09;;;;;;;2.75;2.65;;;;;;;;;;5072491;28;20025;-72
2021/11/15 13:23:37;;;;;;;3.08;2.88;;;;;;;;;;5072461;28;20025;-72
2021/11/15 13:26:06;;;;;;;3.20;3.00;;;;;;;;;;5073703;28;20044;-72
2021/11/15 13:28:34;;;;;;;3.40;3.20;;;;;;;;;;5072529;28;20370;-72
2021/11/15 13:31:01;;;;;;;2.85;2.65;;;;;;;;;;5073656;28;20032;-72
2021/11/15 13:33:29;;;;;;;3.65;2.80;;;;;;;;;;5073766;28;20032;-73
2021/11/15 13:35:56;;;;;;;2.90;2.70;;;;;;;;;;5073695;28;20519;-73
2021/11/15 13:38:24;;;;;;;3.75;2.90;;;;;;;;;;5072344;28;20056;-73
2021/11/15 13:40:51;;;;;;;3.03;2.83;;;;;;;;;;5075363;28;20028;-73
2021/11/15 13:43:19;;;;;;;3.15;2.95;;;;;;;;;;5077531;28;20503;-72
2021/11/15 13:45:50;;;;;;;3.40;3.10;;;;;;;;;;5077615;28;20016;-72
2021/11/15 13:48:21;;;;;;;3.40;3.10;;;;;;;;;;5076376;28;20028;-72
2021/11/15 13:50:49;;;;;;;3.30;3.10;;;;;;;;;;5076106;28;20139;-72
2021/11/15 13:53:16;;;;;;;3.15;2.95;;;;;;;;;;5076023;28;20402;-72
2021/11/15 13:55:44;;;;;;;3.47;3.17;;;;;;;;;;5077366;28;20031;-73
2021/11/15 13:58:15;;;;;;;3.20;3.00;;;;;;;;;;5077275;28;20078;-72
2021/11/15 14:00:42;;;;;;;3.50;3.20;;;;;;;;;;5077245;28;20017;-73
2021/11/15 14:03:09;;;;;;;3.60;3.40;;;;;;;;;;5075758;28;20105;-72
2021/11/15 14:05:36;;;;;;;3.45;3.22;;;;;;;;;;5075892;28;20500;-72
2021/11/15 14:08:04;;;;;;;3.33;3.13;;;;;;;;;;5075786;28;20105;-72
2021/11/15 14:10:32;;;;;;;3.78;3.47;;;;;;;;;;5077009;28;20025;-72
2021/11/15 14:12:59;;;;;;;3.33;3.03;;;;;;;;;;5075611;28;20024;-73
2021/11/15 14:15:26;;;;;;;3.20;2.90;;;;;;;;;;5077044;28;20338;-71
2021/11/15 14:17:53;;;;;;;3.22;2.90;;;;;;;;;;5076964;28;20044;-72
2021/11/15 14:20:21;;;;;;;3.45;3.10;;;;;;;;;;5076912;28;20016;-72
2021/11/15 14:22:49;;;;;;;3.40;3.20;;;;;;;;;;5076711;28;20019;-71